createdAt,value
2019-05-30T00:00:17.408Z,8.60
2019-05-30T00:02:46.165Z,8.60
2019-05-30T00:05:18.746Z,8.60
2019-05-30T00:07:51.992Z,8.60
2019-05-30T00:10:30.881Z,8.50
2019-05-30T00:13:06.422Z,8.50
2019-05-30T00:15:38.033Z,8.40
2019-05-30T00:18:12.216Z,8.50
2019-05-30T00:20:42.457Z,8.40
2019-05-30T00:23:15.977Z,8.50
2019-05-30T00:25:48.473Z,8.50
2019-05-30T00:28:24.693Z,8.40
2019-05-30T00:31:00.413Z,8.40
2019-05-30T00:33:53.493Z,8.30
2019-05-30T00:36:25.833Z,8.30
2019-05-30T00:38:57.765Z,8.30
2019-05-30T00:41:30.161Z,8.30
2019-05-30T00:44:04.359Z,8.30
2019-05-30T00:46:37.451Z,8.30
2019-05-30T00:49:08.713Z,8.30
2019-05-30T00:51:40.629Z,8.20
2019-05-30T00:54:10.897Z,8.20
2019-05-30T00:56:43.273Z,8.20
2019-05-30T00:59:14.620Z,8.00
2019-05-30T01:01:48.533Z,8.10
2019-05-30T01:04:20.237Z,8.10
2019-05-30T01:06:51.605Z,8.10
2019-05-30T01:09:22.425Z,8.10
2019-05-30T01:11:56.926Z,8.10
2019-05-30T01:14:29.946Z,8.10
2019-05-30T01:17:03.157Z,8.00
2019-05-30T01:19:37.565Z,7.90
2019-05-30T01:22:09.975Z,7.90
2019-05-30T01:24:43.894Z,7.90
2019-05-30T01:27:17.852Z,7.90
2019-05-30T01:29:52.638Z,7.90
2019-05-30T01:32:30.084Z,7.90
2019-05-30T01:35:03.726Z,7.90
2019-05-30T01:37:36.425Z,7.80
2019-05-30T01:40:09.152Z,7.80
2019-05-30T01:42:41.553Z,7.80
2019-05-30T01:45:17.133Z,7.80
2019-05-30T01:47:48.018Z,7.80
2019-05-30T01:50:24.331Z,7.80
2019-05-30T01:52:55.829Z,7.80
2019-05-30T01:55:28.741Z,7.70
2019-05-30T01:58:03.297Z,7.70
2019-05-30T02:00:43.857Z,7.70
2019-05-30T02:03:19.078Z,7.70
2019-05-30T02:05:52.589Z,7.70
2019-05-30T02:08:24.053Z,7.60
2019-05-30T02:10:56.030Z,7.60
2019-05-30T02:13:28.374Z,7.60
2019-05-30T02:16:01.966Z,7.70
2019-05-30T02:18:38.736Z,7.60
2019-05-30T02:21:13.245Z,7.60
2019-05-30T02:23:45.937Z,7.60
2019-05-30T02:26:20.931Z,7.60
2019-05-30T02:28:54.386Z,7.50
2019-05-30T02:31:38.327Z,7.60
2019-05-30T02:33:55.117Z,7.60
2019-05-30T02:36:28.227Z,7.60
2019-05-30T02:39:00.762Z,7.60
2019-05-30T02:41:34.230Z,7.60
2019-05-30T02:44:07.561Z,7.70
2019-05-30T02:46:38.446Z,7.70
2019-05-30T02:49:13.683Z,7.70
2019-05-30T02:51:44.275Z,7.90
2019-05-30T02:54:13.512Z,8.30
2019-05-30T02:56:43.655Z,8.50
2019-05-30T02:59:14.088Z,8.60
2019-05-30T03:02:01.276Z,8.40
2019-05-30T03:04:21.446Z,8.60
2019-05-30T03:06:53.269Z,9.00
2019-05-30T03:09:26.288Z,9.30
2019-05-30T03:11:58.051Z,9.50
2019-05-30T03:14:30.532Z,9.80
2019-05-30T03:17:03.158Z,9.70
2019-05-30T03:19:38.550Z,10.40
2019-05-30T03:22:13.969Z,10.10
2019-05-30T03:24:48.762Z,9.70
2019-05-30T03:27:21.182Z,9.80
2019-05-30T03:29:52.241Z,9.90
2019-05-30T03:33:02.239Z,9.70
2019-05-30T03:35:06.132Z,9.10
2019-05-30T03:37:37.153Z,9.00
2019-05-30T03:40:07.189Z,8.80
2019-05-30T03:42:38.626Z,9.00
2019-05-30T03:45:11.967Z,8.90
2019-05-30T03:47:42.892Z,9.40
2019-05-30T03:50:17.715Z,9.20
2019-05-30T03:52:49.330Z,9.60
2019-05-30T03:55:23.253Z,9.50
2019-05-30T03:57:58.105Z,10.10
2019-05-30T04:00:50.611Z,10.00
2019-05-30T04:03:24.951Z,10.00
2019-05-30T04:05:57.438Z,10.50
2019-05-30T04:08:31.287Z,10.70
2019-05-30T04:11:04.647Z,10.40
2019-05-30T04:13:52.306Z,10.10
2019-05-30T04:16:24.762Z,9.90
2019-05-30T04:18:57.097Z,9.60
2019-05-30T04:21:28.653Z,10.00
2019-05-30T04:23:58.927Z,10.40
2019-05-30T04:26:31.600Z,10.90
2019-05-30T04:29:02.907Z,11.30
2019-05-30T04:31:32.074Z,11.90
2019-05-30T04:34:02.673Z,11.50
2019-05-30T04:36:33.696Z,11.80
2019-05-30T04:39:02.718Z,11.60
2019-05-30T04:41:32.967Z,11.20
2019-05-30T04:44:02.898Z,11.90
2019-05-30T04:46:36.354Z,11.90
2019-05-30T04:49:10.097Z,11.80
2019-05-30T04:51:42.473Z,12.30
2019-05-30T04:54:18.946Z,11.90
2019-05-30T04:56:51.490Z,12.10
2019-05-30T04:59:24.446Z,12.00
2019-05-30T05:01:56.920Z,12.10
2019-05-30T05:04:30.272Z,12.10
2019-05-30T05:07:01.011Z,12.50
2019-05-30T05:09:31.486Z,12.30
2019-05-30T05:12:02.496Z,12.30
2019-05-30T05:14:38.357Z,12.50
2019-05-30T05:17:10.621Z,11.90
2019-05-30T05:19:45.107Z,12.10
2019-05-30T05:22:17.029Z,12.20
2019-05-30T05:24:47.863Z,12.40
2019-05-30T05:27:17.735Z,12.40
2019-05-30T05:29:47.296Z,12.50
2019-05-30T05:32:18.228Z,12.40
2019-05-30T05:34:53.821Z,12.30
2019-05-30T05:37:27.286Z,12.20
2019-05-30T05:40:00.756Z,12.40
2019-05-30T05:42:31.753Z,12.80
2019-05-30T05:45:00.724Z,12.60
2019-05-30T05:47:30.913Z,12.60
2019-05-30T05:50:05.498Z,12.90
2019-05-30T05:52:58.118Z,13.00
2019-05-30T05:55:29.653Z,13.30
2019-05-30T05:58:04.378Z,13.40
2019-05-30T06:00:35.761Z,13.40
2019-05-30T06:03:08.001Z,13.30
2019-05-30T06:05:52.526Z,13.30
2019-05-30T06:08:15.329Z,13.30
2019-05-30T06:10:47.194Z,13.20
2019-05-30T06:13:16.930Z,12.80
2019-05-30T06:15:49.876Z,12.90
2019-05-30T06:18:22.260Z,13.10
2019-05-30T06:21:11.125Z,13.10
2019-05-30T06:23:45.440Z,13.30
2019-05-30T06:26:14.245Z,13.20
2019-05-30T06:28:46.047Z,13.20
2019-05-30T06:31:15.902Z,13.50
2019-05-30T06:33:49.452Z,13.60
2019-05-30T06:36:23.207Z,13.50
2019-05-30T06:38:56.719Z,13.60
2019-05-30T06:41:29.832Z,13.70
2019-05-30T06:44:05.600Z,13.80
2019-05-30T06:46:36.437Z,13.80
2019-05-30T06:49:09.661Z,13.80
2019-05-30T06:51:43.113Z,13.60
2019-05-30T06:54:13.266Z,13.60
2019-05-30T06:56:45.147Z,13.90
2019-05-30T06:59:17.820Z,14.00
2019-05-30T07:01:52.242Z,13.80
2019-05-30T07:04:23.148Z,14.00
2019-05-30T07:06:52.675Z,14.30
2019-05-30T07:09:41.355Z,14.30
2019-05-30T07:12:12.022Z,14.20
2019-05-30T07:14:43.097Z,14.30
2019-05-30T07:17:17.048Z,14.00
2019-05-30T07:19:49.358Z,14.10
2019-05-30T07:22:21.174Z,14.10
2019-05-30T07:24:53.208Z,14.20
2019-05-30T07:27:23.746Z,14.10
2019-05-30T07:29:56.661Z,14.00
2019-05-30T07:32:32.300Z,14.10
2019-05-30T07:35:07.240Z,14.30
2019-05-30T07:37:56.808Z,13.90
2019-05-30T07:40:29.141Z,14.00
2019-05-30T07:43:01.449Z,13.80
2019-05-30T07:45:33.121Z,13.70
2019-05-30T07:48:03.401Z,13.70
2019-05-30T07:50:38.878Z,14.00
2019-05-30T07:53:12.505Z,14.10
2019-05-30T07:55:42.648Z,14.40
2019-05-30T07:58:13.141Z,14.60
2019-05-30T08:00:43.699Z,14.80
2019-05-30T08:03:18.537Z,15.00
2019-05-30T08:05:52.663Z,14.90
2019-05-30T08:08:28.142Z,14.80
2019-05-30T08:11:09.294Z,14.90
2019-05-30T08:13:33.265Z,15.10
2019-05-30T08:16:07.633Z,15.20
2019-05-30T08:18:41.492Z,15.40
2019-05-30T08:21:14.888Z,15.50
2019-05-30T08:23:44.720Z,15.40
2019-05-30T08:26:18.216Z,15.50
2019-05-30T08:28:48.399Z,15.60
2019-05-30T08:31:19.525Z,15.50
2019-05-30T08:33:51.556Z,15.40
2019-05-30T08:36:22.384Z,15.30
2019-05-30T08:38:56.339Z,15.40
2019-05-30T08:41:31.096Z,15.10
2019-05-30T08:44:05.368Z,15.30
2019-05-30T08:46:37.974Z,15.30
2019-05-30T08:49:10.538Z,15.20
2019-05-30T08:51:41.857Z,15.20
2019-05-30T08:54:13.954Z,15.20
2019-05-30T08:56:43.743Z,15.20
2019-05-30T08:59:13.258Z,15.30
2019-05-30T09:01:44.152Z,15.40
2019-05-30T09:04:15.028Z,15.50
2019-05-30T09:06:47.217Z,15.60
2019-05-30T09:09:19.521Z,15.80
2019-05-30T09:11:51.653Z,16.20
2019-05-30T09:14:22.307Z,16.30
2019-05-30T09:16:53.036Z,16.20
2019-05-30T09:19:24.471Z,16.10
2019-05-30T09:21:57.781Z,16.00
2019-05-30T09:24:30.163Z,16.10
2019-05-30T09:27:03.148Z,16.20
2019-05-30T09:29:33.960Z,16.20
2019-05-30T09:32:08.920Z,16.40
2019-05-30T09:34:41.521Z,16.40
2019-05-30T09:37:11.516Z,16.70
2019-05-30T09:39:45.203Z,16.60
2019-05-30T09:42:17.850Z,16.70
2019-05-30T09:44:53.828Z,16.80
2019-05-30T09:47:25.712Z,16.90
2019-05-30T09:49:57.724Z,17.00
2019-05-30T09:52:31.553Z,17.10
2019-05-30T09:55:02.805Z,17.10
2019-05-30T09:57:37.940Z,16.80
2019-05-30T10:00:12.195Z,16.80
2019-05-30T10:02:46.763Z,16.90
2019-05-30T10:05:28.817Z,17.20
2019-05-30T10:08:02.222Z,17.10
2019-05-30T10:10:36.245Z,17.40
2019-05-30T10:13:09.262Z,17.50
2019-05-30T10:15:40.563Z,17.50
2019-05-30T10:18:13.047Z,17.50
2019-05-30T10:20:42.975Z,17.60
2019-05-30T10:23:14.366Z,17.70
2019-05-30T10:25:48.409Z,18.20
2019-05-30T10:28:20.055Z,17.90
2019-05-30T10:30:57.264Z,17.80
2019-05-30T10:33:28.013Z,18.00
2019-05-30T10:36:00.261Z,17.80
2019-05-30T10:38:31.448Z,17.90
2019-05-30T10:41:01.637Z,18.00
2019-05-30T10:43:36.836Z,18.00
2019-05-30T10:46:08.185Z,18.00
2019-05-30T10:48:39.473Z,18.00
2019-05-30T10:51:12.890Z,18.20
2019-05-30T10:53:45.452Z,18.30
2019-05-30T10:56:17.102Z,18.10
2019-05-30T10:58:52.880Z,18.20
2019-05-30T11:01:25.309Z,18.30
2019-05-30T11:03:57.237Z,18.70
2019-05-30T11:07:06.878Z,18.50
2019-05-30T11:09:24.681Z,18.70
2019-05-30T11:11:58.877Z,18.60
2019-05-30T11:14:34.455Z,18.70
2019-05-30T11:17:07.305Z,18.90
2019-05-30T11:19:42.798Z,18.60
2019-05-30T11:22:12.831Z,18.60
2019-05-30T11:24:42.911Z,18.50
2019-05-30T11:27:13.689Z,18.10
2019-05-30T11:29:45.336Z,18.10
2019-05-30T11:32:17.965Z,18.40
2019-05-30T11:34:53.053Z,19.10
2019-05-30T11:37:24.397Z,19.40
2019-05-30T11:39:57.865Z,18.90
2019-05-30T11:42:30.602Z,18.60
2019-05-30T11:45:04.013Z,18.60
2019-05-30T11:47:38.432Z,18.60
2019-05-30T11:50:13.031Z,18.30
2019-05-30T11:52:46.256Z,18.30
2019-05-30T11:55:18.527Z,18.80
2019-05-30T11:57:54.669Z,18.80
2019-05-30T12:00:25.071Z,18.80
2019-05-30T12:02:56.510Z,18.30
2019-05-30T12:05:30.415Z,18.60
2019-05-30T12:08:01.008Z,18.40
2019-05-30T12:10:29.852Z,18.50
2019-05-30T12:13:01.477Z,18.40
2019-05-30T12:15:34.513Z,18.50
2019-05-30T12:18:06.882Z,18.10
2019-05-30T12:20:38.540Z,18.30
2019-05-30T12:23:09.866Z,18.50
2019-05-30T12:25:48.543Z,18.30
2019-05-30T12:28:19.193Z,18.30
2019-05-30T12:30:57.747Z,18.00
2019-05-30T12:33:27.097Z,18.30
2019-05-30T12:36:04.853Z,18.20
2019-05-30T12:38:39.824Z,17.90
2019-05-30T12:41:11.879Z,17.80
2019-05-30T12:43:44.832Z,17.50
2019-05-30T12:46:18.178Z,17.50
2019-05-30T12:48:50.638Z,17.10
2019-05-30T12:51:24.997Z,17.30
2019-05-30T12:53:57.016Z,17.40
2019-05-30T12:56:30.479Z,17.30
2019-05-30T12:59:02.916Z,17.20
2019-05-30T13:01:33.973Z,17.40
2019-05-30T13:04:04.866Z,17.50
2019-05-30T13:06:37.184Z,17.50
2019-05-30T13:09:10.839Z,17.10
2019-05-30T13:11:43.571Z,16.90
2019-05-30T13:14:19.238Z,16.60
2019-05-30T13:16:52.633Z,16.50
2019-05-30T13:19:26.073Z,16.30
2019-05-30T13:22:03.357Z,16.30
2019-05-30T13:24:36.269Z,16.40
2019-05-30T13:27:09.021Z,16.40
2019-05-30T13:29:40.947Z,16.20
2019-05-30T13:32:11.535Z,16.10
2019-05-30T13:34:41.260Z,15.90
2019-05-30T13:37:13.459Z,15.80
2019-05-30T13:39:46.090Z,15.90
2019-05-30T13:42:22.208Z,15.90
2019-05-30T13:44:54.109Z,15.90
2019-05-30T13:47:28.097Z,15.80
2019-05-30T13:50:09.034Z,15.60
2019-05-30T13:52:36.869Z,15.50
2019-05-30T13:55:10.359Z,15.20
2019-05-30T13:57:43.255Z,15.20
2019-05-30T14:00:16.981Z,15.00
2019-05-30T14:02:55.986Z,15.00
2019-05-30T14:05:28.312Z,14.90
2019-05-30T14:07:58.138Z,14.80
2019-05-30T14:10:29.392Z,14.90
2019-05-30T14:13:00.887Z,14.90
2019-05-30T14:15:32.353Z,14.90
2019-05-30T14:18:05.346Z,14.90
2019-05-30T14:20:37.046Z,14.80
2019-05-30T14:23:09.693Z,14.70
2019-05-30T14:25:40.056Z,14.80
2019-05-30T14:28:10.397Z,14.70
2019-05-30T14:30:39.370Z,14.70
2019-05-30T14:33:10.668Z,14.70
2019-05-30T14:35:42.138Z,14.60
2019-05-30T14:38:14.314Z,14.50
2019-05-30T14:40:46.709Z,14.60
2019-05-30T14:43:18.105Z,14.70
2019-05-30T14:45:50.492Z,14.30
2019-05-30T14:48:21.777Z,14.20
2019-05-30T14:50:53.405Z,14.20
2019-05-30T14:53:26.837Z,14.20
2019-05-30T14:55:59.317Z,14.00
2019-05-30T14:58:31.691Z,13.90
2019-05-30T15:01:05.312Z,13.90
2019-05-30T15:03:36.604Z,14.00
2019-05-30T15:06:10.111Z,14.00
2019-05-30T15:08:41.901Z,14.00
2019-05-30T15:11:13.822Z,13.90
2019-05-30T15:13:47.935Z,14.00
2019-05-30T15:16:22.264Z,14.00
2019-05-30T15:18:54.793Z,14.00
2019-05-30T15:21:25.521Z,13.80
2019-05-30T15:23:57.412Z,13.80
2019-05-30T15:26:30.169Z,14.00
2019-05-30T15:29:01.464Z,13.90
2019-05-30T15:31:33.802Z,13.90
2019-05-30T15:34:08.398Z,13.70
2019-05-30T15:36:42.679Z,13.60
2019-05-30T15:39:32.524Z,13.60
2019-05-30T15:41:54.768Z,13.60
2019-05-30T15:44:29.468Z,13.70
2019-05-30T15:47:02.014Z,13.70
2019-05-30T15:49:31.205Z,13.60
2019-05-30T15:52:01.632Z,13.70
2019-05-30T15:54:34.066Z,13.70
2019-05-30T15:57:21.085Z,13.70
2019-05-30T15:59:53.881Z,13.50
2019-05-30T16:02:28.976Z,13.40
2019-05-30T16:05:00.733Z,13.50
2019-05-30T16:07:30.973Z,13.60
2019-05-30T16:10:03.562Z,13.50
2019-05-30T16:12:34.826Z,13.40
2019-05-30T16:15:08.885Z,13.30
2019-05-30T16:17:41.365Z,13.40
2019-05-30T16:20:14.009Z,13.50
2019-05-30T16:22:45.492Z,13.50
2019-05-30T16:25:20.068Z,13.60
2019-05-30T16:27:53.152Z,13.40
2019-05-30T16:30:27.130Z,13.50
2019-05-30T16:32:59.626Z,13.50
2019-05-30T16:35:33.001Z,13.40
2019-05-30T16:38:04.768Z,13.40
2019-05-30T16:40:37.078Z,13.40
2019-05-30T16:43:09.156Z,13.30
2019-05-30T16:45:44.086Z,13.30
2019-05-30T16:48:18.352Z,13.40
2019-05-30T16:50:49.222Z,13.30
2019-05-30T16:53:25.859Z,13.40
2019-05-30T16:55:58.265Z,13.40
2019-05-30T16:58:31.390Z,13.30
2019-05-30T17:01:04.811Z,13.20
2019-05-30T17:03:36.556Z,13.30
2019-05-30T17:06:09.102Z,13.10
2019-05-30T17:08:42.298Z,13.10
2019-05-30T17:11:13.122Z,13.10
2019-05-30T17:13:44.857Z,13.20
2019-05-30T17:16:17.872Z,13.10
2019-05-30T17:18:50.149Z,13.20
2019-05-30T17:21:21.580Z,13.10
2019-05-30T17:23:54.018Z,13.10
2019-05-30T17:26:23.735Z,13.20
2019-05-30T17:28:53.300Z,13.20
2019-05-30T17:31:23.926Z,13.10
2019-05-30T17:33:56.795Z,13.10
2019-05-30T17:36:26.877Z,13.00
2019-05-30T17:38:57.640Z,13.00
2019-05-30T17:41:29.006Z,13.00
2019-05-30T17:44:02.159Z,13.00
2019-05-30T17:46:32.486Z,12.90
2019-05-30T17:49:05.966Z,12.90
2019-05-30T17:51:38.361Z,12.90
2019-05-30T17:54:09.826Z,12.90
2019-05-30T17:56:41.628Z,12.90
2019-05-30T17:59:12.399Z,12.90
2019-05-30T18:01:43.192Z,12.80
2019-05-30T18:04:17.393Z,12.90
2019-05-30T18:06:49.702Z,13.00
2019-05-30T18:09:22.857Z,13.00
2019-05-30T18:11:57.736Z,13.10
2019-05-30T18:14:29.267Z,13.30
2019-05-30T18:17:04.778Z,13.30
2019-05-30T18:19:37.483Z,13.20
2019-05-30T18:22:27.601Z,13.40
2019-05-30T18:25:01.210Z,13.40
2019-05-30T18:27:33.753Z,13.20
2019-05-30T18:30:03.488Z,13.10
2019-05-30T18:32:36.825Z,13.00
2019-05-30T18:35:10.032Z,13.00
2019-05-30T18:37:40.816Z,12.90
2019-05-30T18:40:15.312Z,12.90
2019-05-30T18:42:48.405Z,13.00
2019-05-30T18:45:22.813Z,13.00
2019-05-30T18:48:14.932Z,13.00
2019-05-30T18:50:45.909Z,12.80
2019-05-30T18:53:19.263Z,12.80
2019-05-30T18:55:52.025Z,12.80
2019-05-30T18:58:26.801Z,12.80
2019-05-30T19:00:58.754Z,12.70
2019-05-30T19:03:30.577Z,12.80
2019-05-30T19:06:00.897Z,12.50
2019-05-30T19:08:32.064Z,12.60
2019-05-30T19:11:05.823Z,12.60
2019-05-30T19:13:35.872Z,12.60
2019-05-30T19:16:09.148Z,12.50
2019-05-30T19:18:39.938Z,12.50
2019-05-30T19:21:12.185Z,12.40
2019-05-30T19:23:42.561Z,12.30
2019-05-30T19:26:13.930Z,12.30
2019-05-30T19:28:44.795Z,12.20
2019-05-30T19:31:15.570Z,12.20
2019-05-30T19:33:50.558Z,12.10
2019-05-30T19:36:22.331Z,12.10
2019-05-30T19:38:52.886Z,12.00
2019-05-30T19:41:25.564Z,12.00
2019-05-30T19:44:00.094Z,12.00
2019-05-30T19:46:32.254Z,12.00
2019-05-30T19:49:02.102Z,12.00
2019-05-30T19:51:33.005Z,12.00
2019-05-30T19:54:03.825Z,12.00
2019-05-30T19:56:44.747Z,12.00
2019-05-30T19:59:33.759Z,11.90
2019-05-30T20:02:06.235Z,11.90
2019-05-30T20:04:40.943Z,11.90
2019-05-30T20:07:13.365Z,11.80
2019-05-30T20:10:00.537Z,11.90
2019-05-30T20:12:23.727Z,11.80
2019-05-30T20:14:59.221Z,11.80
2019-05-30T20:17:35.418Z,11.80
2019-05-30T20:20:09.145Z,11.70
2019-05-30T20:22:38.565Z,11.80
2019-05-30T20:25:11.717Z,11.80
2019-05-30T20:27:45.385Z,11.80
2019-05-30T20:30:17.799Z,11.80
2019-05-30T20:32:53.354Z,11.80
2019-05-30T20:35:26.874Z,11.80
2019-05-30T20:38:01.520Z,11.80
2019-05-30T20:40:30.894Z,11.80
2019-05-30T20:43:03.224Z,11.80
2019-05-30T20:45:44.670Z,11.80
2019-05-30T20:48:12.875Z,11.90
2019-05-30T20:50:47.469Z,11.90
2019-05-30T20:53:20.509Z,12.00
2019-05-30T20:55:51.996Z,12.00
2019-05-30T20:58:23.017Z,11.90
2019-05-30T21:00:53.192Z,11.90
2019-05-30T21:03:23.621Z,11.90
2019-05-30T21:05:59.534Z,12.00
2019-05-30T21:08:35.220Z,12.00
2019-05-30T21:11:06.048Z,12.10
2019-05-30T21:13:38.046Z,12.10
2019-05-30T21:16:09.941Z,12.10
2019-05-30T21:18:48.897Z,12.10
2019-05-30T21:21:25.465Z,12.10
2019-05-30T21:23:58.389Z,12.10
2019-05-30T21:26:31.099Z,12.10
2019-05-30T21:29:02.327Z,12.10
2019-05-30T21:31:33.342Z,12.00
2019-05-30T21:34:06.866Z,12.00
2019-05-30T21:36:42.310Z,11.90
2019-05-30T21:39:14.745Z,11.90
2019-05-30T21:41:46.746Z,12.00
2019-05-30T21:44:21.380Z,11.90
2019-05-30T21:46:53.369Z,11.90
2019-05-30T21:49:27.985Z,11.90
2019-05-30T21:52:02.508Z,11.90
2019-05-30T21:54:35.064Z,11.90
2019-05-30T21:57:07.481Z,11.90
2019-05-30T21:59:40.405Z,11.80
2019-05-30T22:02:11.806Z,11.90
2019-05-30T22:04:44.417Z,11.90
2019-05-30T22:07:15.217Z,12.00
2019-05-30T22:09:47.328Z,12.00
2019-05-30T22:12:19.133Z,11.90
2019-05-30T22:14:52.396Z,12.00
2019-05-30T22:17:25.578Z,12.00
2019-05-30T22:19:54.644Z,12.00
2019-05-30T22:22:23.813Z,12.00
2019-05-30T22:24:58.941Z,12.00
2019-05-30T22:27:32.994Z,12.00
2019-05-30T22:30:03.799Z,12.00
2019-05-30T22:32:36.054Z,12.00
2019-05-30T22:35:09.423Z,12.00
2019-05-30T22:37:44.814Z,12.00
2019-05-30T22:40:16.376Z,12.00
2019-05-30T22:42:48.806Z,12.00
2019-05-30T22:45:20.825Z,12.00
2019-05-30T22:48:12.628Z,11.90
2019-05-30T22:50:44.616Z,11.80
2019-05-30T22:53:18.456Z,11.80
2019-05-30T22:55:53.896Z,11.80
2019-05-30T22:58:26.327Z,11.80
2019-05-30T23:01:00.685Z,11.80
2019-05-30T23:03:32.532Z,11.80
2019-05-30T23:06:04.549Z,11.80
2019-05-30T23:08:36.815Z,11.80
2019-05-30T23:11:08.362Z,11.80
2019-05-30T23:13:40.845Z,11.80
2019-05-30T23:16:13.840Z,11.80
2019-05-30T23:18:46.437Z,11.80
2019-05-30T23:21:18.964Z,11.90
2019-05-30T23:23:53.692Z,11.90
2019-05-30T23:26:29.174Z,12.00
2019-05-30T23:29:06.397Z,12.00
2019-05-30T23:31:40.949Z,12.00
2019-05-30T23:34:12.793Z,12.10
2019-05-30T23:36:45.184Z,11.90
2019-05-30T23:39:18.756Z,11.90
2019-05-30T23:41:52.954Z,11.80
2019-05-30T23:44:26.580Z,11.70
2019-05-30T23:46:57.983Z,11.60
2019-05-30T23:49:30.925Z,11.60
2019-05-30T23:52:04.334Z,11.50
2019-05-30T23:54:36.470Z,11.40
